Time;durP1;ratioP1;P1;durP2;ratioP2;P2;SDS_P1;SDS_P2;PMS_P1;PMS_P2;Temp;Humidity;BMP_temperature;BMP_pressure;BME280_temperature;BME280_humidity;BME280_pressure;Samples;Min_cycle;Max_cycle;Signal;HPM_P1;HPM_P2
2022/08/02 00:00:15;;;;;;;5.22;2.83;;;19.30;99.90;;;;;;5091519;28;20208;-43
2022/08/02 00:02:42;;;;;;;5.22;2.88;;;19.10;99.90;;;;;;5091234;28;20178;-44
2022/08/02 00:05:09;;;;;;;4.22;2.67;;;19.10;99.90;;;;;;5091322;28;20737;-44
2022/08/02 00:07:35;;;;;;;3.58;2.47;;;18.90;99.90;;;;;;5091931;28;20515;-44
2022/08/02 00:10:01;;;;;;;4.45;3.30;;;18.80;99.90;;;;;;5091647;28;20520;-44
2022/08/02 00:12:27;;;;;;;6.72;2.97;;;19.00;99.90;;;;;;5073158;28;20315;-44
2022/08/02 00:14:52;;;;;;;5.00;2.97;;;19.00;99.90;;;;;;5091631;28;20165;-44
2022/08/02 00:17:18;;;;;;;7.07;2.80;;;19.00;99.90;;;;;;5091315;28;20208;-44
2022/08/02 00:19:44;;;;;;;5.30;3.40;;;19.00;99.90;;;;;;5091274;28;20235;-44
2022/08/02 00:22:10;;;;;;;9.45;3.25;;;19.20;99.90;;;;;;5091390;28;20196;-44
2022/08/02 00:24:36;;;;;;;8.25;2.83;;;19.10;99.90;;;;;;5091400;28;20702;-44
2022/08/02 00:27:02;;;;;;;6.85;3.10;;;19.10;99.90;;;;;;5091182;28;20265;-44
2022/08/02 00:29:29;;;;;;;6.65;3.55;;;19.10;99.90;;;;;;5091322;28;20633;-44
2022/08/02 00:32:00;;;;;;;5.60;3.40;;;19.00;99.90;;;;;;5073024;28;20174;-43
2022/08/02 00:34:26;;;;;;;4.65;3.38;;;19.10;99.90;;;;;;5091076;28;20194;-42
2022/08/02 00:36:52;;;;;;;8.20;2.85;;;19.10;99.90;;;;;;5091558;28;20629;-44
2022/08/02 00:39:18;;;;;;;5.85;3.03;;;18.90;99.90;;;;;;5091087;28;20168;-44
2022/08/02 00:41:48;;;;;;;5.53;2.80;;;19.00;99.90;;;;;;5091267;28;20212;-44
2022/08/02 00:44:15;;;;;;;5.57;2.60;;;18.80;99.90;;;;;;5094382;28;20218;-44
2022/08/02 00:46:41;;;;;;;6.60;3.20;;;18.80;99.90;;;;;;5094866;28;20289;-43
2022/08/02 00:49:06;;;;;;;7.45;3.17;;;18.90;99.90;;;;;;5076761;28;20165;-44
2022/08/02 00:51:32;;;;;;;6.25;3.58;;;18.80;99.90;;;;;;5094781;28;20165;-44
2022/08/02 00:53:58;;;;;;;6.63;3.30;;;18.90;99.90;;;;;;5094813;28;20189;-44
2022/08/02 00:56:23;;;;;;;6.65;3.25;;;18.90;99.90;;;;;;5095012;28;20173;-45
2022/08/02 00:58:49;;;;;;;5.65;3.08;;;18.90;99.90;;;;;;5095042;28;20680;-44
2022/08/02 01:01:15;;;;;;;6.70;3.40;;;18.90;99.90;;;;;;5094590;28;20204;-43
2022/08/02 01:03:40;;;;;;;7.03;3.25;;;19.00;99.90;;;;;;5094967;28;20256;-43
2022/08/02 01:06:06;;;;;;;7.45;3.33;;;18.90;99.90;;;;;;5094621;28;20176;-44
2022/08/02 01:08:32;;;;;;;6.28;3.60;;;18.90;99.90;;;;;;5094595;28;20161;-46
2022/08/02 01:10:58;;;;;;;3.42;2.72;;;18.80;99.90;;;;;;5094301;28;20165;-44
2022/08/02 01:13:24;;;;;;;5.88;2.72;;;18.80;99.90;;;;;;5094539;28;20579;-44
2022/08/02 01:15:59;;;;;;;3.78;2.67;;;18.80;99.90;;;;;;5094737;28;20251;-44
2022/08/02 01:18:34;;;;;;;4.88;2.83;;;18.80;99.90;;;;;;5094402;28;20210;-44
2022/08/02 01:21:28;;;;;;;8.20;3.10;;;18.80;99.90;;;;;;5094368;28;20205;-43
2022/08/02 01:24:02;;;;;;;5.95;2.60;;;18.60;99.90;;;;;;5094370;28;20161;-46
2022/08/02 01:26:37;;;;;;;3.15;2.55;;;18.60;99.90;;;;;;5094349;28;20175;-44
2022/08/02 01:29:02;;;;;;;4.90;2.90;;;18.60;99.90;;;;;;5096790;28;20214;-43
2022/08/02 01:31:48;;;;;;;4.68;2.80;;;18.60;99.90;;;;;;5102334;28;20181;-47
2022/08/02 01:34:36;;;;;;;5.28;2.80;;;18.60;99.90;;;;;;5103793;28;20185;-43
2022/08/02 01:37:24;;;;;;;3.28;2.45;;;18.60;99.90;;;;;;5077828;28;20644;-44
2022/08/02 01:39:56;;;;;;;4.47;3.20;;;18.60;99.90;;;;;;5094396;28;20244;-43
2022/08/02 01:42:25;;;;;;;3.75;2.65;;;18.60;99.90;;;;;;5094170;28;20694;-44
2022/08/02 01:44:53;;;;;;;4.03;2.78;;;18.60;99.90;;;;;;5094308;28;20528;-44
2022/08/02 01:47:25;;;;;;;3.10;2.42;;;18.60;99.90;;;;;;5094195;28;20248;-44
2022/08/02 01:49:53;;;;;;;4.65;2.88;;;18.60;99.90;;;;;;5093982;28;20174;-44
2022/08/02 01:52:22;;;;;;;13.88;3.38;;;18.60;99.90;;;;;;5094014;28;20544;-45
2022/08/02 01:55:07;;;;;;;6.50;2.92;;;18.60;99.90;;;;;;5094031;28;20204;-44
2022/08/02 01:57:38;;;;;;;9.05;2.75;;;18.60;99.90;;;;;;5093707;28;20589;-44
2022/08/02 02:00:06;;;;;;;4.30;2.88;;;18.50;99.90;;;;;;5093617;28;20197;-44
2022/08/02 02:02:35;;;;;;;5.78;2.72;;;18.50;99.90;;;;;;5093704;28;20216;-44
2022/08/02 02:05:01;;;;;;;6.70;2.67;;;18.50;99.90;;;;;;5093572;28;20169;-46
2022/08/02 02:07:30;;;;;;;8.38;3.20;;;18.50;99.90;;;;;;5075295;28;20509;-43
2022/08/02 02:09:58;;;;;;;6.28;3.30;;;18.50;99.90;;;;;;5093545;28;20197;-44
2022/08/02 02:12:24;;;;;;;8.23;3.55;;;18.40;99.90;;;;;;5093148;28;20274;-43
2022/08/02 02:14:51;;;;;;;8.90;3.10;;;18.40;99.90;;;;;;5093669;28;20161;-44
2022/08/02 02:17:19;;;;;;;12.18;4.20;;;18.40;99.90;;;;;;5093214;28;20682;-45
2022/08/02 02:19:46;;;;;;;12.02;3.92;;;18.40;99.90;;;;;;5093032;28;20208;-43
2022/08/02 02:22:13;;;;;;;7.30;3.35;;;18.20;99.90;;;;;;5075175;28;20177;-44
2022/08/02 02:24:38;;;;;;;5.18;3.30;;;18.20;99.90;;;;;;5093077;28;20234;-44
2022/08/02 02:27:06;;;;;;;6.28;3.28;;;18.30;99.90;;;;;;5093116;28;20169;-44
2022/08/02 02:29:34;;;;;;;8.32;3.25;;;18.30;99.90;;;;;;5093080;28;20204;-44
2022/08/02 02:32:00;;;;;;;6.15;3.20;;;18.30;99.90;;;;;;5093202;28;20173;-44
2022/08/02 02:34:48;;;;;;;10.77;3.33;;;18.30;99.90;;;;;;5093022;28;20157;-44
2022/08/02 02:37:18;;;;;;;9.25;2.83;;;18.30;99.90;;;;;;5092732;28;20197;-56
2022/08/02 02:39:46;;;;;;;6.63;3.03;;;18.20;99.90;;;;;;5092745;28;20284;-45
2022/08/02 02:42:15;;;;;;;7.10;2.90;;;18.20;99.90;;;;;;5092769;28;20165;-44
2022/08/02 02:44:43;;;;;;;6.78;3.17;;;18.20;99.90;;;;;;5092752;28;20158;-44
2022/08/02 02:47:10;;;;;;;5.55;3.15;;;18.20;99.90;;;;;;5092723;28;20172;-45
2022/08/02 02:49:37;;;;;;;6.20;2.85;;;18.20;99.90;;;;;;5092941;28;20181;-44
2022/08/02 02:52:05;;;;;;;5.95;2.42;;;18.10;99.90;;;;;;5092553;28;20196;-44
2022/08/02 02:54:32;;;;;;;6.43;3.63;;;18.00;99.90;;;;;;5092727;28;20564;-44
2022/08/02 02:56:59;;;;;;;9.13;3.38;;;18.00;99.90;;;;;;5092462;28;20261;-44
2022/08/02 02:59:25;;;;;;;3.15;2.63;;;18.00;99.90;;;;;;5092330;28;20162;-44
2022/08/02 03:01:53;;;;;;;6.18;2.92;;;18.00;99.90;;;;;;5093064;28;20184;-44
2022/08/02 03:04:20;;;;;;;5.95;3.38;;;18.10;99.90;;;;;;5092603;28;20551;-44
2022/08/02 03:06:46;;;;;;;9.30;3.58;;;18.00;99.90;;;;;;5091861;28;20525;-45
2022/08/02 03:09:12;;;;;;;4.68;3.17;;;17.90;99.90;;;;;;5092353;28;20219;-44
2022/08/02 03:11:38;;;;;;;6.45;3.30;;;17.90;99.90;;;;;;5092266;28;20213;-44
2022/08/02 03:14:08;;;;;;;9.40;3.35;;;17.80;99.90;;;;;;5074218;28;20226;-44
2022/08/02 03:16:42;;;;;;;5.40;3.08;;;17.70;99.90;;;;;;5092248;28;20162;-44
2022/08/02 03:19:07;;;;;;;7.45;3.10;;;17.70;99.90;;;;;;5092393;28;20256;-44
2022/08/02 03:21:33;;;;;;;7.18;3.45;;;17.70;99.90;;;;;;5092132;28;20291;-44
2022/08/02 03:23:59;;;;;;;10.00;3.63;;;17.70;99.90;;;;;;5091965;28;20191;-43
2022/08/02 03:26:24;;;;;;;7.45;3.55;;;17.70;99.90;;;;;;5091923;28;20176;-43
2022/08/02 03:28:50;;;;;;;6.03;2.85;;;17.70;99.90;;;;;;5092245;28;20164;-42
2022/08/02 03:31:15;;;;;;;7.75;3.28;;;17.70;99.90;;;;;;5091980;28;20165;-43
2022/08/02 03:33:41;;;;;;;5.97;3.17;;;17.60;99.90;;;;;;5103459;28;20186;-43
2022/08/02 03:36:12;;;;;;;5.93;2.90;;;17.60;99.90;;;;;;5091917;28;20162;-43
2022/08/02 03:38:39;;;;;;;10.35;4.00;;;17.50;99.90;;;;;;5091829;28;20165;-43
2022/08/02 03:41:06;;;;;;;7.45;2.88;;;17.70;99.90;;;;;;5092043;28;20213;-43
2022/08/02 03:43:32;;;;;;;8.32;3.38;;;17.60;99.90;;;;;;5091727;28;20158;-43
2022/08/02 03:45:58;;;;;;;8.05;3.10;;;17.60;99.90;;;;;;5091965;28;20184;-43
2022/08/02 03:48:28;;;;;;;5.70;2.97;;;17.60;99.90;;;;;;5091647;28;20177;-45
2022/08/02 03:50:55;;;;;;;3.70;3.00;;;17.60;99.90;;;;;;5091769;28;20203;-43
2022/08/02 03:53:22;;;;;;;7.45;3.22;;;17.60;99.90;;;;;;5096702;28;20564;-44
2022/08/02 03:55:47;;;;;;;5.43;3.08;;;17.60;99.90;;;;;;5100704;28;20185;-43
2022/08/02 03:58:21;;;;;;;5.30;3.00;;;17.50;99.90;;;;;;5091410;28;20303;-45
2022/08/02 04:00:47;;;;;;;7.85;3.30;;;17.40;99.90;;;;;;5091374;28;20204;-43
2022/08/02 04:03:13;;;;;;;6.13;2.90;;;17.40;99.90;;;;;;5091425;28;20193;-44
2022/08/02 04:05:39;;;;;;;10.27;3.58;;;17.40;99.90;;;;;;5092241;28;20184;-44
2022/08/02 04:08:05;;;;;;;9.15;4.03;;;17.40;99.90;;;;;;5102149;28;20177;-44
2022/08/02 04:10:32;;;;;;;4.97;2.70;;;17.40;99.90;;;;;;5094014;28;20203;-44
2022/08/02 04:13:17;;;;;;;8.07;3.50;;;17.40;99.90;;;;;;5091168;28;20271;-44
2022/08/02 04:15:44;;;;;;;5.65;3.33;;;17.40;99.90;;;;;;5090260;28;20191;-42
2022/08/02 04:18:10;;;;;;;6.00;3.35;;;17.30;99.90;;;;;;5092666;28;20172;-44
2022/08/02 04:20:37;;;;;;;11.32;3.38;;;17.30;99.90;;;;;;5099673;28;20242;-43
2022/08/02 04:23:08;;;;;;;8.50;3.35;;;17.40;99.90;;;;;;5096572;28;20596;-42
2022/08/02 04:25:34;;;;;;;7.03;3.13;;;17.40;99.90;;;;;;5095651;28;20577;-48
2022/08/02 04:28:01;;;;;;;5.95;3.45;;;17.50;99.90;;;;;;5095689;28;20543;-45
2022/08/02 04:30:28;;;;;;;7.28;3.53;;;17.50;99.90;;;;;;5095298;28;20619;-51
2022/08/02 04:32:54;;;;;;;4.97;3.00;;;17.50;99.90;;;;;;5095161;28;20570;-43
2022/08/02 04:35:21;;;;;;;10.45;3.60;;;17.50;99.90;;;;;;5095337;28;20168;-43
2022/08/02 04:37:47;;;;;;;5.70;3.47;;;17.50;99.90;;;;;;5103119;28;20668;-43
2022/08/02 04:40:14;;;;;;;6.55;3.28;;;17.60;99.90;;;;;;5104242;28;20197;-50
2022/08/02 04:42:41;;;;;;;5.63;3.45;;;17.60;99.90;;;;;;5104605;28;20176;-42
2022/08/02 04:45:09;;;;;;;5.15;3.00;;;17.60;99.90;;;;;;5105747;28;20169;-43
2022/08/02 04:47:38;;;;;;;6.10;3.78;;;17.70;99.90;;;;;;5092980;28;20218;-52
2022/08/02 04:50:05;;;;;;;7.40;3.30;;;17.70;99.90;;;;;;5103745;28;20554;-42
2022/08/02 04:52:30;;;;;;;6.05;4.05;;;17.70;99.90;;;;;;5105539;28;20559;-42
2022/08/02 04:54:57;;;;;;;8.77;3.20;;;17.80;99.90;;;;;;5102366;28;20161;-50
2022/08/02 04:58:09;;;;;;;4.88;3.08;;;17.60;99.90;;;;;;5087413;28;20654;-53
2022/08/02 05:00:10;;;;;;;4.68;2.90;;;17.70;99.90;;;;;;5096439;28;20338;-52
2022/08/02 05:02:36;;;;;;;7.32;3.40;;;17.80;99.90;;;;;;5100033;28;20628;-43
2022/08/02 05:05:04;;;;;;;6.50;3.08;;;17.80;99.90;;;;;;5105363;28;20173;-54
2022/08/02 05:07:30;;;;;;;9.52;3.88;;;17.80;99.90;;;;;;5103717;28;20276;-54
2022/08/02 05:09:56;;;;;;;8.07;3.55;;;17.90;99.90;;;;;;5104175;28;20244;-45
2022/08/02 05:12:23;;;;;;;9.25;3.70;;;17.90;99.90;;;;;;5101981;28;20208;-45
2022/08/02 05:14:49;;;;;;;7.28;4.00;;;18.00;99.90;;;;;;5102162;28;20166;-53
2022/08/02 05:17:16;;;;;;;6.28;3.90;;;18.10;99.90;;;;;;5102627;28;20174;-42
2022/08/02 05:19:41;;;;;;;6.38;3.60;;;18.20;99.90;;;;;;5104065;28;20589;-42
2022/08/02 05:22:07;;;;;;;5.22;3.55;;;18.40;99.90;;;;;;5103782;28;20233;-42
2022/08/02 05:24:33;;;;;;;4.32;3.15;;;18.50;99.90;;;;;;5101270;28;20165;-42
2022/08/02 05:27:00;;;;;;;6.85;4.25;;;18.50;99.90;;;;;;5103982;28;20715;-46
2022/08/02 05:29:26;;;;;;;4.65;3.63;;;18.60;99.90;;;;;;5085262;28;20234;-47
2022/08/02 05:31:53;;;;;;;8.40;3.70;;;18.60;99.90;;;;;;5101218;28;20627;-47
2022/08/02 05:34:19;;;;;;;4.78;3.53;;;18.70;99.90;;;;;;5101443;28;20252;-44
2022/08/02 05:36:45;;;;;;;3.38;3.03;;;18.90;99.90;;;;;;5093015;28;20244;-43
2022/08/02 05:39:10;;;;;;;4.82;3.60;;;19.00;99.90;;;;;;5092930;28;20215;-43
2022/08/02 05:41:36;;;;;;;3.58;3.25;;;19.20;99.90;;;;;;5092666;28;20208;-44
2022/08/02 05:44:03;;;;;;;3.83;3.33;;;19.20;99.90;;;;;;5093122;28;20219;-44
2022/08/02 05:46:28;;;;;;;5.10;3.35;;;19.30;99.90;;;;;;5092973;28;20164;-44
2022/08/02 05:48:54;;;;;;;6.00;3.30;;;19.40;99.90;;;;;;5096324;28;20658;-43
2022/08/02 05:51:25;;;;;;;6.00;3.92;;;19.50;99.90;;;;;;5102412;28;20181;-43
2022/08/02 05:54:01;;;;;;;4.85;3.80;;;19.50;99.90;;;;;;5115247;28;20169;-43
2022/08/02 05:56:37;;;;;;;5.43;3.60;;;19.60;99.90;;;;;;5112863;28;20171;-43
2022/08/02 05:59:32;;;;;;;6.20;3.97;;;19.60;99.90;;;;;;5112780;28;20179;-43
2022/08/02 06:02:02;;;;;;;5.55;3.75;;;19.70;99.90;;;;;;5099168;28;20204;-43
2022/08/02 06:05:02;;;;;;;5.68;3.50;;;19.60;99.90;;;;;;5112072;28;20702;-43
2022/08/02 06:07:29;;;;;;;8.43;3.85;;;19.70;99.90;;;;;;5112966;28;20161;-43
2022/08/02 06:09:55;;;;;;;7.25;3.78;;;19.80;99.90;;;;;;5112650;28;20168;-44
2022/08/02 06:12:24;;;;;;;9.23;4.37;;;19.90;99.90;;;;;;5075480;28;1085127;-44
2022/08/02 06:14:51;;;;;;;5.10;4.28;;;20.00;99.90;;;;;;5113183;28;20410;-44
2022/08/02 06:17:18;;;;;;;4.85;4.15;;;20.10;99.90;;;;;;5113952;28;20168;-43
2022/08/02 06:19:45;;;;;;;7.80;4.40;;;20.10;99.90;;;;;;5113301;28;20172;-42
2022/08/02 06:22:15;;;;;;;5.10;4.10;;;20.20;99.90;;;;;;5113489;28;20184;-43
2022/08/02 06:24:44;;;;;;;4.65;3.60;;;20.30;99.90;;;;;;5112612;28;20156;-44
2022/08/02 06:27:14;;;;;;;6.53;3.75;;;20.50;99.90;;;;;;5113351;28;20165;-44
2022/08/02 06:29:41;;;;;;;7.35;3.67;;;20.50;99.90;;;;;;5113344;28;20173;-44
2022/08/02 06:32:08;;;;;;;5.20;3.75;;;20.60;99.90;;;;;;5112772;28;20176;-44
2022/08/02 06:34:40;;;;;;;6.32;3.63;;;20.70;99.90;;;;;;5104489;28;20166;-44
2022/08/02 06:37:13;;;;;;;5.40;3.40;;;20.80;99.90;;;;;;5105833;28;20176;-43
2022/08/02 06:39:45;;;;;;;4.65;3.10;;;20.90;99.90;;;;;;5104535;28;20263;-43
2022/08/02 06:42:13;;;;;;;5.20;3.42;;;21.10;99.90;;;;;;5112568;28;20188;-43
2022/08/02 06:44:39;;;;;;;4.97;3.25;;;21.20;99.90;;;;;;5113076;28;20218;-43
2022/08/02 06:47:05;;;;;;;7.65;3.17;;;21.30;99.90;;;;;;5113042;28;20570;-43
2022/08/02 06:49:30;;;;;;;4.90;3.38;;;21.40;99.90;;;;;;5112897;28;20193;-44
2022/08/02 06:51:56;;;;;;;5.30;3.08;;;21.40;99.90;;;;;;5110417;28;20636;-44
2022/08/02 06:54:21;;;;;;;6.85;3.25;;;21.50;99.90;;;;;;5105935;28;20176;-43
2022/08/02 06:56:48;;;;;;;9.93;3.42;;;21.60;99.90;;;;;;5109822;28;20178;-44
2022/08/02 06:59:13;;;;;;;6.10;2.92;;;21.70;99.90;;;;;;5105536;28;20180;-44
2022/08/02 07:01:39;;;;;;;5.10;3.33;;;21.80;99.90;;;;;;5095049;28;20265;-43
2022/08/02 07:04:04;;;;;;;6.75;2.78;;;22.00;99.90;;;;;;5092452;28;20165;-43
2022/08/02 07:06:30;;;;;;;5.55;3.45;;;22.10;99.90;;;;;;5092328;28;20204;-44
2022/08/02 07:08:56;;;;;;;4.90;3.25;;;22.10;99.90;;;;;;5092254;28;20161;-43
2022/08/02 07:11:22;;;;;;;4.70;3.60;;;22.10;99.90;;;;;;5092034;28;20212;-43
2022/08/02 07:13:48;;;;;;;6.75;3.83;;;22.30;99.90;;;;;;5092544;28;20663;-43
2022/08/02 07:16:14;;;;;;;6.55;3.40;;;22.30;99.90;;;;;;5092247;28;20169;-43
2022/08/02 07:18:39;;;;;;;6.45;3.10;;;22.30;99.90;;;;;;5092220;28;20169;-43
2022/08/02 07:21:05;;;;;;;8.95;3.03;;;22.50;99.90;;;;;;5092026;28;20223;-44
2022/08/02 07:23:31;;;;;;;4.30;2.90;;;22.60;99.90;;;;;;5091957;28;20168;-43
2022/08/02 07:25:57;;;;;;;6.72;2.97;;;22.70;99.90;;;;;;5091986;28;20173;-43
2022/08/02 07:28:23;;;;;;;5.63;2.80;;;22.90;99.90;;;;;;5091818;28;20180;-43
2022/08/02 07:30:48;;;;;;;2.92;2.17;;;22.90;99.90;;;;;;5098112;28;20168;-46
2022/08/02 07:33:14;;;;;;;4.28;2.95;;;23.00;99.90;;;;;;5111059;28;20203;-47
2022/08/02 07:35:40;;;;;;;4.05;2.92;;;23.00;99.90;;;;;;5103414;27;20705;-44
2022/08/02 07:38:06;;;;;;;3.45;2.83;;;23.20;99.90;;;;;;5101380;28;20185;-50
2022/08/02 07:40:32;;;;;;;2.65;2.42;;;23.00;99.90;;;;;;5106274;28;20291;-44
2022/08/02 07:42:58;;;;;;;3.58;2.50;;;23.40;99.90;;;;;;5120302;27;20832;-45
2022/08/02 07:45:24;;;;;;;3.15;2.85;;;23.40;99.90;;;;;;5116845;27;20206;-44
2022/08/02 07:47:51;;;;;;;4.80;2.63;;;23.30;99.90;;;;;;5110824;28;20256;-45
2022/08/02 07:50:18;;;;;;;4.00;2.58;;;23.40;99.90;;;;;;5110492;28;20179;-44
2022/08/02 07:52:44;;;;;;;4.45;2.90;;;23.50;99.90;;;;;;5109978;28;20196;-44
2022/08/02 07:55:11;;;;;;;3.15;2.30;;;23.40;99.90;;;;;;5110596;28;20538;-45
2022/08/02 07:57:38;;;;;;;3.60;2.92;;;23.30;99.90;;;;;;5110594;28;20199;-44
2022/08/02 08:00:07;;;;;;;3.22;2.30;;;23.50;99.90;;;;;;5110060;28;20223;-45
2022/08/02 08:02:32;;;;;;;4.43;2.95;;;23.70;99.90;;;;;;5110109;28;20196;-44
2022/08/02 08:04:58;;;;;;;4.00;2.90;;;23.60;99.90;;;;;;5110389;28;20203;-44
2022/08/02 08:07:24;;;;;;;6.15;3.55;;;23.60;99.90;;;;;;5110423;28;20222;-44
2022/08/02 08:09:50;;;;;;;5.38;3.63;;;23.70;99.90;;;;;;5110905;28;20226;-43
2022/08/02 08:12:16;;;;;;;6.30;2.83;;;23.50;99.90;;;;;;5109584;28;20675;-44
2022/08/02 08:14:42;;;;;;;4.57;2.75;;;23.50;99.90;;;;;;5110336;28;20169;-44
2022/08/02 08:17:08;;;;;;;4.30;2.58;;;23.60;99.90;;;;;;5110365;28;20165;-44
2022/08/02 08:19:34;;;;;;;3.13;2.70;;;23.60;99.90;;;;;;5110275;28;20171;-44
2022/08/02 08:22:00;;;;;;;9.95;2.90;;;23.60;99.90;;;;;;5109684;28;20204;-45
2022/08/02 08:24:26;;;;;;;4.30;3.42;;;23.80;99.90;;;;;;5110031;28;20196;-50
2022/08/02 08:26:53;;;;;;;4.97;3.00;;;23.70;99.90;;;;;;5110308;28;20169;-45
2022/08/02 08:29:20;;;;;;;5.95;2.75;;;23.80;99.90;;;;;;5110526;28;20153;-46
2022/08/02 08:31:46;;;;;;;5.75;2.40;;;24.30;99.90;;;;;;5109795;28;20164;-44
2022/08/02 08:34:12;;;;;;;4.20;2.20;;;24.40;99.90;;;;;;5126378;28;20190;-44
2022/08/02 08:36:37;;;;;;;7.22;3.13;;;24.70;99.90;;;;;;5130929;28;20168;-44
2022/08/02 08:39:03;;;;;;;3.90;3.28;;;24.80;99.90;;;;;;5130613;28;20243;-44
2022/08/02 08:41:29;;;;;;;3.20;2.63;;;24.70;99.90;;;;;;5111760;28;20710;-44
2022/08/02 08:43:55;;;;;;;4.30;2.50;;;24.90;99.90;;;;;;5130496;28;20251;-44
2022/08/02 08:46:29;;;;;;;3.13;2.60;;;24.90;99.90;;;;;;5130532;28;20163;-47
2022/08/02 08:49:18;;;;;;;2.95;2.47;;;24.90;99.90;;;;;;5130400;28;20159;-43
2022/08/02 08:51:43;;;;;;;4.18;2.97;;;24.90;99.90;;;;;;5089239;28;20161;-45
2022/08/02 08:54:15;;;;;;;3.47;2.40;;;25.00;99.90;;;;;;5089192;28;20162;-46
2022/08/02 08:56:41;;;;;;;6.25;2.75;;;25.20;99.90;;;;;;5089803;28;20574;-45
2022/08/02 08:59:07;;;;;;;2.72;2.40;;;25.30;99.90;;;;;;5089748;28;20169;-54
2022/08/02 09:01:33;;;;;;;3.45;2.50;;;25.30;99.90;;;;;;5089157;28;20573;-47
2022/08/02 09:03:59;;;;;;;2.92;2.45;;;25.60;99.90;;;;;;5107762;27;20175;-47
2022/08/02 09:06:25;;;;;;;4.07;2.55;;;25.60;99.90;;;;;;5134210;27;20174;-46
2022/08/02 09:08:51;;;;;;;5.18;3.22;;;25.60;99.90;;;;;;5107175;28;20218;-49
2022/08/02 09:11:21;;;;;;;5.38;2.40;;;25.50;99.90;;;;;;5113295;28;20211;-45
2022/08/02 09:13:55;;;;;;;2.78;2.40;;;25.50;99.90;;;;;;5113591;28;20807;-43
2022/08/02 09:16:36;;;;;;;2.72;2.28;;;25.80;99.90;;;;;;5121272;27;20173;-46
2022/08/02 09:19:23;;;;;;;2.40;1.98;;;26.30;99.90;;;;;;5133883;27;20186;-45
2022/08/02 09:21:59;;;;;;;4.35;2.50;;;26.40;99.90;;;;;;5127924;27;20214;-47
2022/08/02 09:24:24;;;;;;;3.15;2.22;;;26.40;99.90;;;;;;5132854;27;20163;-46
2022/08/02 09:26:50;;;;;;;3.13;2.30;;;26.00;99.90;;;;;;5114044;27;20187;-43
2022/08/02 09:29:20;;;;;;;3.53;2.40;;;25.70;99.90;;;;;;5097331;28;20218;-43
2022/08/02 09:31:46;;;;;;;2.70;2.40;;;25.50;99.90;;;;;;5093181;28;20173;-46
2022/08/02 09:34:11;;;;;;;3.55;2.20;;;25.60;99.90;;;;;;5094374;28;20200;-44
2022/08/02 09:36:42;;;;;;;3.80;2.25;;;25.60;99.90;;;;;;5092844;28;20196;-43
2022/08/02 09:39:10;;;;;;;2.63;2.42;;;26.00;99.90;;;;;;5075451;28;20169;-45
2022/08/02 09:41:39;;;;;;;5.13;2.35;;;26.10;99.90;;;;;;5093946;28;20200;-47
2022/08/02 09:44:07;;;;;;;2.30;2.10;;;26.00;99.90;;;;;;5093175;28;20579;-45
2022/08/02 09:46:38;;;;;;;4.32;2.50;;;26.20;99.90;;;;;;5092488;28;20165;-44
2022/08/02 09:49:11;;;;;;;5.18;2.00;;;26.30;99.90;;;;;;5092407;28;20638;-45
2022/08/02 09:51:50;;;;;;;2.38;2.17;;;26.10;99.90;;;;;;5092672;28;20266;-44
2022/08/02 09:54:22;;;;;;;2.72;1.98;;;26.00;99.90;;;;;;5092828;28;20169;-44
2022/08/02 09:56:49;;;;;;;2.53;2.00;;;26.50;99.90;;;;;;5092625;28;20168;-44
2022/08/02 09:59:16;;;;;;;3.10;2.10;;;26.50;99.90;;;;;;5093237;28;20164;-45
2022/08/02 10:01:44;;;;;;;3.15;2.08;;;26.70;99.90;;;;;;5093953;28;20322;-44
2022/08/02 10:04:12;;;;;;;2.15;1.95;;;26.90;99.90;;;;;;5093849;28;20157;-45
2022/08/02 10:06:39;;;;;;;4.38;1.80;;;27.20;99.90;;;;;;5094151;28;20168;-44
2022/08/02 10:09:06;;;;;;;2.03;1.80;;;27.40;99.90;;;;;;5075609;28;20191;-44
2022/08/02 10:11:34;;;;;;;3.83;1.98;;;27.70;99.90;;;;;;5093619;28;20218;-44
2022/08/02 10:14:02;;;;;;;2.35;2.15;;;27.60;99.90;;;;;;5093768;28;20542;-46
2022/08/02 10:16:27;;;;;;;4.30;1.70;;;27.90;99.90;;;;;;5092638;28;20172;-44
2022/08/02 10:18:55;;;;;;;4.38;2.00;;;28.10;99.90;;;;;;5094019;28;20168;-44
2022/08/02 10:21:52;;;;;;;2.50;1.60;;;28.20;99.90;;;;;;5093610;28;20283;-43
2022/08/02 10:24:21;;;;;;;5.32;1.90;;;28.00;99.90;;;;;;5080317;28;20179;-44
2022/08/02 10:26:48;;;;;;;3.30;2.05;;;27.80;99.90;;;;;;5093919;28;20628;-44
2022/08/02 10:29:37;;;;;;;4.80;2.05;;;27.90;99.90;;;;;;5093601;28;20168;-45
2022/08/02 10:32:11;;;;;;;1.92;1.83;;;27.90;99.90;;;;;;5093521;28;20214;-44
2022/08/02 10:34:45;;;;;;;2.05;1.85;;;28.30;99.90;;;;;;5093439;28;20164;-44
2022/08/02 10:37:13;;;;;;;2.00;1.73;;;28.40;99.90;;;;;;5093422;28;20160;-45
2022/08/02 10:39:41;;;;;;;2.45;1.80;;;28.40;99.90;;;;;;5093369;28;20177;-45
2022/08/02 10:42:07;;;;;;;1.98;1.88;;;28.50;99.90;;;;;;5093362;28;20271;-45
2022/08/02 10:44:34;;;;;;;1.90;1.80;;;28.50;99.90;;;;;;5093610;28;20175;-44
2022/08/02 10:47:21;;;;;;;2.30;2.10;;;28.50;99.90;;;;;;5093479;28;20200;-44
2022/08/02 10:49:58;;;;;;;1.75;1.65;;;28.00;99.90;;;;;;5093560;28;20169;-45
2022/08/02 10:52:27;;;;;;;2.67;2.00;;;28.40;99.90;;;;;;5093159;28;20160;-44
2022/08/02 10:54:56;;;;;;;2.33;2.05;;;28.40;99.90;;;;;;5093107;28;20161;-45
2022/08/02 10:57:29;;;;;;;3.38;1.98;;;28.50;99.90;;;;;;5093125;28;20161;-44
2022/08/02 11:00:23;;;;;;;1.88;1.58;;;28.80;99.90;;;;;;5092927;28;20156;-44
2022/08/02 11:02:50;;;;;;;2.20;2.00;;;28.70;99.90;;;;;;5077126;28;20588;-44
2022/08/02 11:05:30;;;;;;;2.40;2.15;;;28.60;99.90;;;;;;5093251;28;20526;-46
2022/08/02 11:07:56;;;;;;;2.22;2.10;;;28.80;99.90;;;;;;5093141;28;20175;-44
2022/08/02 11:10:29;;;;;;;2.58;2.10;;;28.50;99.90;;;;;;5092804;28;20169;-43
2022/08/02 11:13:13;;;;;;;4.70;2.30;;;28.80;99.90;;;;;;5092565;28;20216;-44
2022/08/02 11:15:59;;;;;;;5.82;2.00;;;29.00;99.90;;;;;;5092969;28;20179;-44
2022/08/02 11:18:45;;;;;;;2.08;1.70;;;29.10;99.90;;;;;;5092612;28;20161;-44
2022/08/02 11:21:24;;;;;;;2.75;1.90;;;29.20;99.90;;;;;;5092430;28;20208;-44
2022/08/02 11:23:51;;;;;;;3.70;2.25;;;29.20;99.90;;;;;;5092825;28;20195;-44
2022/08/02 11:26:29;;;;;;;2.55;2.05;;;29.20;99.90;;;;;;5092905;28;20173;-44
2022/08/02 11:28:56;;;;;;;2.03;1.85;;;29.20;99.90;;;;;;5092762;28;20160;-45
2022/08/02 11:31:22;;;;;;;1.80;1.70;;;29.20;99.90;;;;;;5074294;28;20169;-44
2022/08/02 11:33:49;;;;;;;2.47;1.90;;;29.10;99.90;;;;;;5092814;28;20654;-44
2022/08/02 11:36:15;;;;;;;2.85;2.13;;;29.00;99.90;;;;;;5092479;28;20285;-44
2022/08/02 11:38:41;;;;;;;1.98;1.65;;;29.30;99.90;;;;;;5092336;28;20157;-45
2022/08/02 11:41:07;;;;;;;3.17;1.98;;;29.20;99.90;;;;;;5092207;28;20254;-44
2022/08/02 11:43:33;;;;;;;4.35;1.95;;;29.50;99.90;;;;;;5092305;28;20715;-44
2022/08/02 11:46:03;;;;;;;2.17;2.00;;;29.30;99.90;;;;;;5092548;28;20173;-44
2022/08/02 11:48:36;;;;;;;2.03;1.80;;;29.60;99.90;;;;;;5092283;28;20157;-44
2022/08/02 11:51:11;;;;;;;3.83;2.20;;;29.90;99.90;;;;;;5092108;28;20524;-45
2022/08/02 11:53:51;;;;;;;2.08;1.95;;;29.90;99.90;;;;;;5074050;28;20186;-44
2022/08/02 11:56:24;;;;;;;4.20;1.80;;;30.10;99.90;;;;;;5092511;28;20165;-45
2022/08/02 11:59:07;;;;;;;11.48;2.60;;;29.80;99.90;;;;;;5092448;28;20153;-45
2022/08/02 12:01:34;;;;;;;9.52;2.35;;;29.60;99.90;;;;;;5092217;28;20257;-44
2022/08/02 12:04:02;;;;;;;3.67;2.00;;;29.70;99.90;;;;;;5092019;28;20251;-45
2022/08/02 12:06:28;;;;;;;8.32;2.45;;;29.90;99.90;;;;;;5092005;28;20222;-45
2022/08/02 12:09:05;;;;;;;2.40;2.10;;;30.10;99.90;;;;;;5092037;28;20165;-45
2022/08/02 12:11:31;;;;;;;2.63;2.00;;;29.90;99.90;;;;;;5091896;28;20247;-45
2022/08/02 12:13:58;;;;;;;2.63;1.73;;;29.70;99.90;;;;;;5091929;28;20172;-46
2022/08/02 12:19:18;;;;;;;1.88;1.67;;;29.40;99.90;;;;;;5092191;28;20222;-44
2022/08/02 12:21:45;;;;;;;2.30;2.05;;;29.50;99.90;;;;;;5091994;28;20244;-44
2022/08/02 12:24:11;;;;;;;1.88;1.77;;;29.60;99.90;;;;;;5091926;28;20161;-44
2022/08/02 12:26:47;;;;;;;2.30;1.90;;;29.50;99.90;;;;;;5091824;28;20172;-45
2022/08/02 12:29:13;;;;;;;1.80;1.70;;;29.50;99.90;;;;;;5091753;28;20172;-44
2022/08/02 12:31:46;;;;;;;2.05;1.70;;;29.30;99.90;;;;;;5091782;28;20203;-46
2022/08/02 12:34:15;;;;;;;4.30;2.00;;;29.10;99.90;;;;;;5091999;28;20635;-44
2022/08/02 12:36:42;;;;;;;2.15;1.95;;;29.40;99.90;;;;;;5091790;28;20184;-45
2022/08/02 12:39:12;;;;;;;2.85;2.13;;;29.60;99.90;;;;;;5092909;28;20668;-45
2022/08/02 12:41:39;;;;;;;2.45;1.70;;;29.70;99.90;;;;;;5095660;28;20196;-44
2022/08/02 12:44:16;;;;;;;2.20;2.00;;;29.80;99.90;;;;;;5095580;28;20166;-45
2022/08/02 12:46:43;;;;;;;1.67;1.58;;;29.90;99.90;;;;;;5095590;28;20623;-44
2022/08/02 12:49:16;;;;;;;1.80;1.70;;;29.90;99.90;;;;;;5095834;28;20173;-44
2022/08/02 12:51:42;;;;;;;2.35;1.95;;;29.80;99.90;;;;;;5095511;28;20164;-44
2022/08/02 12:54:22;;;;;;;2.13;2.00;;;29.40;99.90;;;;;;5095422;28;20172;-46
2022/08/02 12:56:48;;;;;;;2.13;1.80;;;29.20;99.90;;;;;;5095982;28;20173;-45